sensor_id;sensor_type;location;lat;lon;timestamp;pressure;altitude;pressure_sealevel;temperature;humidity
51147;BME280;37207;53.060;18.726;2023-04-06T00:00:56;101470.14;;;1.13;67.82
51147;BME280;37207;53.060;18.726;2023-04-06T00:03:22;101471.34;;;1.09;67.89
51147;BME280;37207;53.060;18.726;2023-04-06T00:05:48;101469.02;;;1.04;68.41
51147;BME280;37207;53.060;18.726;2023-04-06T00:08:14;101466.73;;;1.00;68.15
51147;BME280;37207;53.060;18.726;2023-04-06T00:10:40;101466.06;;;0.98;68.47
51147;BME280;37207;53.060;18.726;2023-04-06T00:13:06;101463.80;;;0.96;68.29
51147;BME280;37207;53.060;18.726;2023-04-06T00:15:33;101466.38;;;0.94;68.66
51147;BME280;37207;53.060;18.726;2023-04-06T00:17:59;101468.17;;;0.92;68.53
51147;BME280;37207;53.060;18.726;2023-04-06T00:20:25;101462.59;;;0.90;68.74
51147;BME280;37207;53.060;18.726;2023-04-06T00:22:51;101462.12;;;0.90;68.92
51147;BME280;37207;53.060;18.726;2023-04-06T00:25:17;101461.49;;;0.91;68.77
51147;BME280;37207;53.060;18.726;2023-04-06T00:27:43;101462.42;;;0.93;68.65
51147;BME280;37207;53.060;18.726;2023-04-06T00:30:09;101460.86;;;0.94;68.99
51147;BME280;37207;53.060;18.726;2023-04-06T00:32:35;101460.63;;;0.94;69.34
51147;BME280;37207;53.060;18.726;2023-04-06T00:35:02;101459.77;;;0.94;69.55
51147;BME280;37207;53.060;18.726;2023-04-06T00:37:28;101458.30;;;0.95;69.30
51147;BME280;37207;53.060;18.726;2023-04-06T00:39:54;101456.73;;;0.98;69.19
51147;BME280;37207;53.060;18.726;2023-04-06T00:42:21;101459.73;;;1.00;69.32
51147;BME280;37207;53.060;18.726;2023-04-06T00:44:58;101458.88;;;1.02;69.25
51147;BME280;37207;53.060;18.726;2023-04-06T00:47:25;101460.05;;;1.02;69.49
51147;BME280;37207;53.060;18.726;2023-04-06T00:49:52;101461.60;;;1.01;69.45
51147;BME280;37207;53.060;18.726;2023-04-06T00:52:18;101457.23;;;1.02;69.64
51147;BME280;37207;53.060;18.726;2023-04-06T00:54:45;101457.03;;;0.98;70.04
51147;BME280;37207;53.060;18.726;2023-04-06T00:57:12;101453.58;;;0.91;70.07
51147;BME280;37207;53.060;18.726;2023-04-06T00:59:39;101453.77;;;0.86;69.99
51147;BME280;37207;53.060;18.726;2023-04-06T01:02:06;101447.36;;;0.79;70.40
51147;BME280;37207;53.060;18.726;2023-04-06T01:04:37;101449.80;;;0.72;70.54
51147;BME280;37207;53.060;18.726;2023-04-06T01:07:04;101448.91;;;0.66;70.45
51147;BME280;37207;53.060;18.726;2023-04-06T01:09:36;101449.48;;;0.62;70.98
51147;BME280;37207;53.060;18.726;2023-04-06T01:12:04;101448.77;;;0.60;70.84
51147;BME280;37207;53.060;18.726;2023-04-06T01:14:31;101447.31;;;0.58;71.08
51147;BME280;37207;53.060;18.726;2023-04-06T01:16:59;101443.58;;;0.58;70.99
51147;BME280;37207;53.060;18.726;2023-04-06T01:19:31;101446.54;;;0.58;70.92
51147;BME280;37207;53.060;18.726;2023-04-06T01:21:57;101446.06;;;0.58;70.96
51147;BME280;37207;53.060;18.726;2023-04-06T01:24:29;101440.70;;;0.59;70.76
51147;BME280;37207;53.060;18.726;2023-04-06T01:27:07;101441.40;;;0.60;71.06
51147;BME280;37207;53.060;18.726;2023-04-06T01:29:53;101440.16;;;0.60;71.06
51147;BME280;37207;53.060;18.726;2023-04-06T01:32:39;101437.28;;;0.60;71.12
51147;BME280;37207;53.060;18.726;2023-04-06T01:35:06;101439.60;;;0.61;71.32
51147;BME280;37207;53.060;18.726;2023-04-06T01:37:34;101437.51;;;0.62;71.38
51147;BME280;37207;53.060;18.726;2023-04-06T01:40:02;101441.31;;;0.63;71.37
51147;BME280;37207;53.060;18.726;2023-04-06T01:42:39;101437.50;;;0.63;71.11
51147;BME280;37207;53.060;18.726;2023-04-06T01:45:05;101436.80;;;0.65;71.40
51147;BME280;37207;53.060;18.726;2023-04-06T01:47:31;101443.01;;;0.67;71.58
51147;BME280;37207;53.060;18.726;2023-04-06T01:49:57;101446.11;;;0.68;71.37
51147;BME280;37207;53.060;18.726;2023-04-06T01:52:24;101446.64;;;0.68;71.75
51147;BME280;37207;53.060;18.726;2023-04-06T01:54:51;101445.45;;;0.71;71.82
51147;BME280;37207;53.060;18.726;2023-04-06T01:57:46;101446.00;;;0.70;71.63
51147;BME280;37207;53.060;18.726;2023-04-06T02:00:18;101448.48;;;0.70;71.52
51147;BME280;37207;53.060;18.726;2023-04-06T02:02:47;101450.70;;;0.66;71.77
51147;BME280;37207;53.060;18.726;2023-04-06T02:05:18;101450.71;;;0.62;71.90
51147;BME280;37207;53.060;18.726;2023-04-06T02:07:45;101446.30;;;0.59;71.94
51147;BME280;37207;53.060;18.726;2023-04-06T02:10:14;101446.77;;;0.56;72.07
51147;BME280;37207;53.060;18.726;2023-04-06T02:12:40;101445.69;;;0.54;71.92
51147;BME280;37207;53.060;18.726;2023-04-06T02:15:07;101445.70;;;0.54;71.87
51147;BME280;37207;53.060;18.726;2023-04-06T02:17:33;101446.85;;;0.56;71.87
51147;BME280;37207;53.060;18.726;2023-04-06T02:19:59;101445.99;;;0.57;72.02
51147;BME280;37207;53.060;18.726;2023-04-06T02:22:25;101447.55;;;0.57;71.98
51147;BME280;37207;53.060;18.726;2023-04-06T02:24:51;101443.11;;;0.56;72.14
51147;BME280;37207;53.060;18.726;2023-04-06T02:27:17;101443.20;;;0.54;71.99
51147;BME280;37207;53.060;18.726;2023-04-06T02:29:46;101440.86;;;0.55;72.15
51147;BME280;37207;53.060;18.726;2023-04-06T02:32:12;101439.23;;;0.57;71.98
51147;BME280;37207;53.060;18.726;2023-04-06T02:34:38;101442.02;;;0.61;72.13
51147;BME280;37207;53.060;18.726;2023-04-06T02:37:04;101440.61;;;0.64;72.04
51147;BME280;37207;53.060;18.726;2023-04-06T02:39:29;101440.67;;;0.66;72.03
51147;BME280;37207;53.060;18.726;2023-04-06T02:41:55;101441.05;;;0.69;72.29
51147;BME280;37207;53.060;18.726;2023-04-06T02:44:23;101440.31;;;0.72;71.94
51147;BME280;37207;53.060;18.726;2023-04-06T02:46:49;101437.73;;;0.75;72.03
51147;BME280;37207;53.060;18.726;2023-04-06T02:49:16;101436.63;;;0.79;71.77
51147;BME280;37207;53.060;18.726;2023-04-06T02:51:42;101433.35;;;0.84;71.90
51147;BME280;37207;53.060;18.726;2023-04-06T02:54:15;101435.95;;;0.87;71.66
51147;BME280;37207;53.060;18.726;2023-04-06T02:56:41;101432.78;;;0.86;71.68
51147;BME280;37207;53.060;18.726;2023-04-06T02:59:07;101431.16;;;0.84;71.55
51147;BME280;37207;53.060;18.726;2023-04-06T03:01:33;101432.04;;;0.83;71.23
51147;BME280;37207;53.060;18.726;2023-04-06T03:04:02;101432.73;;;0.80;71.06
51147;BME280;37207;53.060;18.726;2023-04-06T03:06:28;101435.39;;;0.79;71.01
51147;BME280;37207;53.060;18.726;2023-04-06T03:08:56;101436.41;;;0.78;71.26
51147;BME280;37207;53.060;18.726;2023-04-06T03:11:23;101438.43;;;0.77;71.38
51147;BME280;37207;53.060;18.726;2023-04-06T03:13:50;101440.60;;;0.77;71.69
51147;BME280;37207;53.060;18.726;2023-04-06T03:16:16;101445.12;;;0.74;71.52
51147;BME280;37207;53.060;18.726;2023-04-06T03:18:42;101445.52;;;0.72;71.31
51147;BME280;37207;53.060;18.726;2023-04-06T03:21:11;101447.23;;;0.70;71.70
51147;BME280;37207;53.060;18.726;2023-04-06T03:23:47;101450.42;;;0.70;71.73
51147;BME280;37207;53.060;18.726;2023-04-06T03:26:15;101449.48;;;0.70;71.85
51147;BME280;37207;53.060;18.726;2023-04-06T03:28:41;101447.92;;;0.72;72.14
51147;BME280;37207;53.060;18.726;2023-04-06T03:31:07;101452.20;;;0.73;72.07
51147;BME280;37207;53.060;18.726;2023-04-06T03:33:41;101452.58;;;0.76;71.87
51147;BME280;37207;53.060;18.726;2023-04-06T03:36:09;101457.46;;;0.77;72.23
51147;BME280;37207;53.060;18.726;2023-04-06T03:38:38;101454.52;;;0.76;72.33
51147;BME280;37207;53.060;18.726;2023-04-06T03:41:08;101462.83;;;0.78;72.33
51147;BME280;37207;53.060;18.726;2023-04-06T03:43:35;101463.37;;;0.77;72.45
51147;BME280;37207;53.060;18.726;2023-04-06T03:46:01;101464.23;;;0.75;72.81
51147;BME280;37207;53.060;18.726;2023-04-06T03:48:27;101460.58;;;0.75;72.82
51147;BME280;37207;53.060;18.726;2023-04-06T03:50:53;101456.15;;;0.76;72.84
51147;BME280;37207;53.060;18.726;2023-04-06T03:53:19;101457.15;;;0.77;72.56
51147;BME280;37207;53.060;18.726;2023-04-06T03:55:44;101457.63;;;0.76;72.97
51147;BME280;37207;53.060;18.726;2023-04-06T03:58:10;101459.34;;;0.75;73.14
51147;BME280;37207;53.060;18.726;2023-04-06T04:00:37;101460.52;;;0.74;72.83
51147;BME280;37207;53.060;18.726;2023-04-06T04:03:03;101458.17;;;0.73;72.97
51147;BME280;37207;53.060;18.726;2023-04-06T04:05:29;101466.27;;;0.73;73.03
51147;BME280;37207;53.060;18.726;2023-04-06T04:07:55;101462.92;;;0.72;73.12
51147;BME280;37207;53.060;18.726;2023-04-06T04:10:24;101463.63;;;0.73;72.96
51147;BME280;37207;53.060;18.726;2023-04-06T04:12:50;101464.71;;;0.73;73.10
51147;BME280;37207;53.060;18.726;2023-04-06T04:15:16;101466.48;;;0.73;73.42
51147;BME280;37207;53.060;18.726;2023-04-06T04:17:41;101465.17;;;0.74;73.16
51147;BME280;37207;53.060;18.726;2023-04-06T04:20:12;101465.94;;;0.76;73.35
51147;BME280;37207;53.060;18.726;2023-04-06T04:22:39;101464.92;;;0.78;73.49
51147;BME280;37207;53.060;18.726;2023-04-06T04:25:05;101466.00;;;0.81;73.59
51147;BME280;37207;53.060;18.726;2023-04-06T04:27:32;101465.75;;;0.84;73.54
51147;BME280;37207;53.060;18.726;2023-04-06T04:29:58;101467.29;;;0.87;73.66
51147;BME280;37207;53.060;18.726;2023-04-06T04:32:24;101471.06;;;0.90;73.53
51147;BME280;37207;53.060;18.726;2023-04-06T04:34:53;101471.52;;;0.93;73.81
51147;BME280;37207;53.060;18.726;2023-04-06T04:37:29;101474.14;;;0.96;73.61
51147;BME280;37207;53.060;18.726;2023-04-06T04:39:57;101471.52;;;0.96;73.79
51147;BME280;37207;53.060;18.726;2023-04-06T04:42:23;101475.48;;;0.93;73.60
51147;BME280;37207;53.060;18.726;2023-04-06T04:44:50;101474.40;;;0.89;73.59
51147;BME280;37207;53.060;18.726;2023-04-06T04:47:21;101467.42;;;0.88;73.56
51147;BME280;37207;53.060;18.726;2023-04-06T04:49:48;101471.17;;;0.86;73.52
51147;BME280;37207;53.060;18.726;2023-04-06T04:52:17;101475.38;;;0.84;73.25
51147;BME280;37207;53.060;18.726;2023-04-06T04:55:03;101476.17;;;0.83;73.49
51147;BME280;37207;53.060;18.726;2023-04-06T04:57:30;101481.77;;;0.84;73.20
51147;BME280;37207;53.060;18.726;2023-04-06T04:59:56;101484.98;;;0.88;73.32
51147;BME280;37207;53.060;18.726;2023-04-06T05:02:22;101486.38;;;0.89;73.19
51147;BME280;37207;53.060;18.726;2023-04-06T05:05:11;101484.58;;;0.91;73.52
51147;BME280;37207;53.060;18.726;2023-04-06T05:07:37;101480.54;;;0.92;73.45
51147;BME280;37207;53.060;18.726;2023-04-06T05:10:04;101483.95;;;0.94;73.36
51147;BME280;37207;53.060;18.726;2023-04-06T05:12:34;101477.57;;;0.96;73.56
51147;BME280;37207;53.060;18.726;2023-04-06T05:15:06;101481.34;;;1.02;73.49
51147;BME280;37207;53.060;18.726;2023-04-06T05:17:33;101485.17;;;1.09;73.05
51147;BME280;37207;53.060;18.726;2023-04-06T05:19:59;101482.65;;;1.15;72.78
51147;BME280;37207;53.060;18.726;2023-04-06T05:22:26;101481.29;;;1.20;72.51
51147;BME280;37207;53.060;18.726;2023-04-06T05:25:03;101482.80;;;1.25;72.57
51147;BME280;37207;53.060;18.726;2023-04-06T05:27:29;101487.07;;;1.27;72.58
51147;BME280;37207;53.060;18.726;2023-04-06T05:29:56;101484.48;;;1.31;72.58
51147;BME280;37207;53.060;18.726;2023-04-06T05:32:22;101487.35;;;1.33;72.58
51147;BME280;37207;53.060;18.726;2023-04-06T05:34:51;101488.81;;;1.35;72.49
51147;BME280;37207;53.060;18.726;2023-04-06T05:37:17;101489.98;;;1.34;72.58
51147;BME280;37207;53.060;18.726;2023-04-06T05:39:43;101486.02;;;1.33;72.19
51147;BME280;37207;53.060;18.726;2023-04-06T05:42:09;101484.94;;;1.34;72.44
51147;BME280;37207;53.060;18.726;2023-04-06T05:45:06;101482.42;;;1.36;72.40
51147;BME280;37207;53.060;18.726;2023-04-06T05:47:33;101482.70;;;1.39;72.21
51147;BME280;37207;53.060;18.726;2023-04-06T05:50:05;101477.16;;;1.41;71.98
51147;BME280;37207;53.060;18.726;2023-04-06T05:52:34;101479.23;;;1.45;71.74
51147;BME280;37207;53.060;18.726;2023-04-06T05:55:00;101478.65;;;1.51;71.67
51147;BME280;37207;53.060;18.726;2023-04-06T05:57:26;101478.67;;;1.57;71.63
51147;BME280;37207;53.060;18.726;2023-04-06T05:59:53;101476.52;;;1.63;71.36
51147;BME280;37207;53.060;18.726;2023-04-06T06:02:19;101479.02;;;1.70;71.23
51147;BME280;37207;53.060;18.726;2023-04-06T06:04:48;101478.25;;;1.75;71.24
51147;BME280;37207;53.060;18.726;2023-04-06T06:07:14;101480.02;;;1.79;71.11
51147;BME280;37207;53.060;18.726;2023-04-06T06:09:50;101482.81;;;1.81;71.19
51147;BME280;37207;53.060;18.726;2023-04-06T06:12:20;101485.35;;;1.84;70.80
51147;BME280;37207;53.060;18.726;2023-04-06T06:14:47;101482.70;;;1.86;70.65
51147;BME280;37207;53.060;18.726;2023-04-06T06:17:13;101482.43;;;1.89;70.21
51147;BME280;37207;53.060;18.726;2023-04-06T06:19:41;101479.98;;;1.91;70.42
51147;BME280;37207;53.060;18.726;2023-04-06T06:22:07;101475.66;;;1.94;70.38
51147;BME280;37207;53.060;18.726;2023-04-06T06:24:35;101476.39;;;2.00;70.32
51147;BME280;37207;53.060;18.726;2023-04-06T06:27:02;101477.15;;;2.03;70.13
51147;BME280;37207;53.060;18.726;2023-04-06T06:29:29;101476.34;;;2.06;69.91
51147;BME280;37207;53.060;18.726;2023-04-06T06:31:55;101475.41;;;2.12;70.12
51147;BME280;37207;53.060;18.726;2023-04-06T06:34:22;101480.02;;;2.18;69.95
51147;BME280;37207;53.060;18.726;2023-04-06T06:36:48;101482.91;;;2.24;70.03
51147;BME280;37207;53.060;18.726;2023-04-06T06:39:15;101479.54;;;2.32;69.92
51147;BME280;37207;53.060;18.726;2023-04-06T06:41:42;101478.02;;;2.36;69.21
51147;BME280;37207;53.060;18.726;2023-04-06T06:44:08;101477.73;;;2.41;69.27
51147;BME280;37207;53.060;18.726;2023-04-06T06:46:34;101478.20;;;2.45;69.00
51147;BME280;37207;53.060;18.726;2023-04-06T06:49:00;101477.14;;;2.51;69.08
51147;BME280;37207;53.060;18.726;2023-04-06T06:51:26;101478.50;;;2.55;68.89
51147;BME280;37207;53.060;18.726;2023-04-06T06:53:51;101478.25;;;2.61;68.85
51147;BME280;37207;53.060;18.726;2023-04-06T06:56:17;101473.66;;;2.67;68.73
51147;BME280;37207;53.060;18.726;2023-04-06T06:58:43;101471.54;;;2.75;68.57
51147;BME280;37207;53.060;18.726;2023-04-06T07:01:09;101470.48;;;2.83;68.42
51147;BME280;37207;53.060;18.726;2023-04-06T07:03:35;101471.65;;;2.89;68.16
51147;BME280;37207;53.060;18.726;2023-04-06T07:06:01;101471.36;;;2.98;68.01
51147;BME280;37207;53.060;18.726;2023-04-06T07:08:27;101468.67;;;3.06;67.85
51147;BME280;37207;53.060;18.726;2023-04-06T07:10:53;101468.58;;;3.17;67.50
51147;BME280;37207;53.060;18.726;2023-04-06T07:13:21;101467.77;;;3.29;67.21
51147;BME280;37207;53.060;18.726;2023-04-06T07:15:50;101466.31;;;3.42;66.81
51147;BME280;37207;53.060;18.726;2023-04-06T07:18:17;101465.51;;;3.57;66.74
51147;BME280;37207;53.060;18.726;2023-04-06T07:20:45;101464.02;;;3.70;66.12
51147;BME280;37207;53.060;18.726;2023-04-06T07:23:11;101462.94;;;3.80;64.37
51147;BME280;37207;53.060;18.726;2023-04-06T07:25:37;101461.87;;;3.87;64.09
51147;BME280;37207;53.060;18.726;2023-04-06T07:28:03;101458.80;;;3.93;63.75
51147;BME280;37207;53.060;18.726;2023-04-06T07:30:31;101460.98;;;3.97;63.92
51147;BME280;37207;53.060;18.726;2023-04-06T07:32:57;101461.95;;;4.04;63.58
51147;BME280;37207;53.060;18.726;2023-04-06T07:35:26;101460.90;;;4.10;63.04
51147;BME280;37207;53.060;18.726;2023-04-06T07:37:53;101458.31;;;4.15;61.92
51147;BME280;37207;53.060;18.726;2023-04-06T07:40:19;101458.41;;;4.17;61.76
51147;BME280;37207;53.060;18.726;2023-04-06T07:42:47;101457.98;;;4.23;61.59
51147;BME280;37207;53.060;18.726;2023-04-06T07:45:13;101459.02;;;4.26;61.22
51147;BME280;37207;53.060;18.726;2023-04-06T07:47:42;101459.34;;;4.26;60.47
51147;BME280;37207;53.060;18.726;2023-04-06T07:50:09;101460.46;;;4.24;59.86
51147;BME280;37207;53.060;18.726;2023-04-06T07:52:36;101457.55;;;4.21;58.89
51147;BME280;37207;53.060;18.726;2023-04-06T07:55:02;101461.90;;;4.18;58.70
51147;BME280;37207;53.060;18.726;2023-04-06T07:57:28;101464.95;;;4.18;59.41
51147;BME280;37207;53.060;18.726;2023-04-06T07:59:54;101461.40;;;4.20;59.47
51147;BME280;37207;53.060;18.726;2023-04-06T08:02:20;101459.67;;;4.24;59.44
51147;BME280;37207;53.060;18.726;2023-04-06T08:04:46;101462.01;;;4.29;59.50
51147;BME280;37207;53.060;18.726;2023-04-06T08:07:12;101459.45;;;4.36;59.37
51147;BME280;37207;53.060;18.726;2023-04-06T08:09:38;101459.43;;;4.44;59.06
51147;BME280;37207;53.060;18.726;2023-04-06T08:12:04;101458.41;;;4.52;58.83
51147;BME280;37207;53.060;18.726;2023-04-06T08:14:30;101454.44;;;4.59;58.24
51147;BME280;37207;53.060;18.726;2023-04-06T08:16:55;101452.08;;;4.64;58.27
51147;BME280;37207;53.060;18.726;2023-04-06T08:19:21;101454.05;;;4.73;58.13
51147;BME280;37207;53.060;18.726;2023-04-06T08:21:47;101454.06;;;4.83;57.98
51147;BME280;37207;53.060;18.726;2023-04-06T08:24:14;101454.24;;;4.92;57.46
51147;BME280;37207;53.060;18.726;2023-04-06T08:26:40;101449.46;;;5.00;57.15
51147;BME280;37207;53.060;18.726;2023-04-06T08:29:06;101453.07;;;5.06;56.79
51147;BME280;37207;53.060;18.726;2023-04-06T08:31:35;101449.19;;;5.08;56.06
51147;BME280;37207;53.060;18.726;2023-04-06T08:34:03;101454.48;;;5.13;56.60
51147;BME280;37207;53.060;18.726;2023-04-06T08:36:31;101454.80;;;5.29;57.01
51147;BME280;37207;53.060;18.726;2023-04-06T08:38:57;101452.58;;;5.71;57.12
51147;BME280;37207;53.060;18.726;2023-04-06T08:41:23;101453.52;;;6.27;57.59
51147;BME280;37207;53.060;18.726;2023-04-06T08:43:56;101454.11;;;6.79;57.16
51147;BME280;37207;53.060;18.726;2023-04-06T08:46:23;101455.49;;;7.15;56.50
51147;BME280;37207;53.060;18.726;2023-04-06T08:49:00;101449.61;;;7.37;55.54
51147;BME280;37207;53.060;18.726;2023-04-06T08:51:28;101447.72;;;7.49;54.26
51147;BME280;37207;53.060;18.726;2023-04-06T08:53:55;101448.91;;;7.65;54.08
51147;BME280;37207;53.060;18.726;2023-04-06T08:56:26;101449.30;;;7.90;54.14
51147;BME280;37207;53.060;18.726;2023-04-06T08:58:53;101448.02;;;8.39;54.65
51147;BME280;37207;53.060;18.726;2023-04-06T09:01:26;101439.36;;;8.85;53.53
51147;BME280;37207;53.060;18.726;2023-04-06T09:03:58;101436.54;;;9.13;51.75
51147;BME280;37207;53.060;18.726;2023-04-06T09:06:26;101435.30;;;9.41;52.36
51147;BME280;37207;53.060;18.726;2023-04-06T09:08:52;101434.61;;;9.63;49.42
51147;BME280;37207;53.060;18.726;2023-04-06T09:11:19;101435.98;;;9.50;49.16
51147;BME280;37207;53.060;18.726;2023-04-06T09:16:13;101428.32;;;9.21;49.71
51147;BME280;37207;53.060;18.726;2023-04-06T09:18:39;101430.65;;;9.33;49.97
51147;BME280;37207;53.060;18.726;2023-04-06T09:21:07;101430.27;;;9.44;48.44
51147;BME280;37207;53.060;18.726;2023-04-06T09:23:33;101423.54;;;10.02;49.18
51147;BME280;37207;53.060;18.726;2023-04-06T09:26:13;101425.98;;;10.62;48.13
51147;BME280;37207;53.060;18.726;2023-04-06T09:31:16;101421.24;;;11.55;47.57
51147;BME280;37207;53.060;18.726;2023-04-06T09:33:44;101413.14;;;11.76;47.54
51147;BME280;37207;53.060;18.726;2023-04-06T09:36:11;101413.50;;;11.72;46.80
51147;BME280;37207;53.060;18.726;2023-04-06T09:38:38;101420.46;;;11.61;45.76
51147;BME280;37207;53.060;18.726;2023-04-06T09:41:04;101412.26;;;11.40;45.54
51147;BME280;37207;53.060;18.726;2023-04-06T09:43:31;101407.69;;;11.22;45.10
51147;BME280;37207;53.060;18.726;2023-04-06T09:45:59;101413.94;;;10.99;44.50
51147;BME280;37207;53.060;18.726;2023-04-06T09:48:27;101412.29;;;10.86;44.86
51147;BME280;37207;53.060;18.726;2023-04-06T09:50:59;101412.71;;;10.70;44.62
51147;BME280;37207;53.060;18.726;2023-04-06T09:53:30;101414.28;;;10.45;44.32
51147;BME280;37207;53.060;18.726;2023-04-06T09:56:00;101412.09;;;10.19;44.43
51147;BME280;37207;53.060;18.726;2023-04-06T09:58:32;101411.73;;;10.16;45.04
51147;BME280;37207;53.060;18.726;2023-04-06T10:01:04;101416.17;;;10.23;45.39
51147;BME280;37207;53.060;18.726;2023-04-06T10:06:11;101408.02;;;10.19;45.26
51147;BME280;37207;53.060;18.726;2023-04-06T10:08:40;101403.53;;;10.14;45.62
51147;BME280;37207;53.060;18.726;2023-04-06T10:11:08;101397.58;;;10.40;45.51
51147;BME280;37207;53.060;18.726;2023-04-06T10:13:35;101397.06;;;10.84;44.84
51147;BME280;37207;53.060;18.726;2023-04-06T10:16:01;101393.50;;;11.00;44.63
51147;BME280;37207;53.060;18.726;2023-04-06T10:18:27;101392.31;;;10.92;43.89
51147;BME280;37207;53.060;18.726;2023-04-06T10:21:09;101391.14;;;10.56;42.82
51147;BME280;37207;53.060;18.726;2023-04-06T10:23:41;101392.35;;;10.26;43.57
51147;BME280;37207;53.060;18.726;2023-04-06T10:26:17;101388.29;;;10.61;43.53
51147;BME280;37207;53.060;18.726;2023-04-06T10:28:47;101389.70;;;11.15;43.14
51147;BME280;37207;53.060;18.726;2023-04-06T10:31:14;101380.46;;;11.61;42.90
51147;BME280;37207;53.060;18.726;2023-04-06T10:33:40;101380.84;;;12.24;42.33
51147;BME280;37207;53.060;18.726;2023-04-06T10:36:11;101378.89;;;12.77;42.00
51147;BME280;37207;53.060;18.726;2023-04-06T10:38:38;101382.35;;;12.81;41.67
51147;BME280;37207;53.060;18.726;2023-04-06T10:41:06;101376.80;;;12.97;41.29
51147;BME280;37207;53.060;18.726;2023-04-06T10:43:36;101374.95;;;13.06;41.58
51147;BME280;37207;53.060;18.726;2023-04-06T10:46:04;101368.17;;;13.25;41.58
51147;BME280;37207;53.060;18.726;2023-04-06T10:48:40;101368.46;;;13.12;40.85
51147;BME280;37207;53.060;18.726;2023-04-06T10:51:10;101360.34;;;12.98;40.67
51147;BME280;37207;53.060;18.726;2023-04-06T10:53:36;101359.29;;;12.66;40.62
51147;BME280;37207;53.060;18.726;2023-04-06T10:56:02;101357.95;;;12.32;40.67
51147;BME280;37207;53.060;18.726;2023-04-06T10:58:29;101360.27;;;11.99;41.72
51147;BME280;37207;53.060;18.726;2023-04-06T11:00:56;101359.06;;;11.77;41.71
51147;BME280;37207;53.060;18.726;2023-04-06T11:03:22;101357.86;;;11.54;42.01
51147;BME280;37207;53.060;18.726;2023-04-06T11:05:49;101361.58;;;11.26;42.20
51147;BME280;37207;53.060;18.726;2023-04-06T11:08:39;101355.80;;;11.01;42.65
51147;BME280;37207;53.060;18.726;2023-04-06T11:11:07;101347.61;;;10.73;42.78
51147;BME280;37207;53.060;18.726;2023-04-06T11:13:59;101346.35;;;10.62;43.34
51147;BME280;37207;53.060;18.726;2023-04-06T11:16:30;101341.60;;;10.71;44.42
51147;BME280;37207;53.060;18.726;2023-04-06T11:18:58;101341.48;;;10.98;45.01
51147;BME280;37207;53.060;18.726;2023-04-06T11:21:54;101335.52;;;11.23;44.76
51147;BME280;37207;53.060;18.726;2023-04-06T11:24:24;101335.27;;;11.42;43.89
51147;BME280;37207;53.060;18.726;2023-04-06T11:26:51;101331.88;;;11.43;43.04
51147;BME280;37207;53.060;18.726;2023-04-06T11:29:19;101331.52;;;11.33;43.28
51147;BME280;37207;53.060;18.726;2023-04-06T11:31:47;101327.34;;;11.34;43.97
51147;BME280;37207;53.060;18.726;2023-04-06T11:34:21;101326.11;;;11.46;43.56
51147;BME280;37207;53.060;18.726;2023-04-06T11:36:53;101327.86;;;11.48;42.89
51147;BME280;37207;53.060;18.726;2023-04-06T11:39:21;101330.57;;;11.53;42.70
51147;BME280;37207;53.060;18.726;2023-04-06T11:41:50;101329.61;;;11.69;43.23
51147;BME280;37207;53.060;18.726;2023-04-06T11:44:44;101326.33;;;11.96;43.35
51147;BME280;37207;53.060;18.726;2023-04-06T11:47:14;101320.68;;;12.36;43.58
51147;BME280;37207;53.060;18.726;2023-04-06T11:49:43;101315.11;;;12.76;43.35
51147;BME280;37207;53.060;18.726;2023-04-06T11:52:23;101312.45;;;13.00;42.27
51147;BME280;37207;53.060;18.726;2023-04-06T11:54:52;101310.09;;;13.01;41.77
51147;BME280;37207;53.060;18.726;2023-04-06T11:57:19;101311.33;;;12.90;40.70
51147;BME280;37207;53.060;18.726;2023-04-06T11:59:46;101309.92;;;12.72;41.50
51147;BME280;37207;53.060;18.726;2023-04-06T12:02:12;101310.32;;;12.50;42.02
51147;BME280;37207;53.060;18.726;2023-04-06T12:04:38;101305.57;;;12.26;42.19
51147;BME280;37207;53.060;18.726;2023-04-06T12:07:04;101306.88;;;12.04;42.43
51147;BME280;37207;53.060;18.726;2023-04-06T12:09:30;101306.10;;;11.93;42.26
51147;BME280;37207;53.060;18.726;2023-04-06T12:11:56;101303.27;;;11.73;41.56
51147;BME280;37207;53.060;18.726;2023-04-06T12:14:23;101304.86;;;11.50;42.16
51147;BME280;37207;53.060;18.726;2023-04-06T12:16:49;101298.94;;;11.35;41.98
51147;BME280;37207;53.060;18.726;2023-04-06T12:19:15;101295.89;;;11.25;41.96
51147;BME280;37207;53.060;18.726;2023-04-06T12:21:41;101291.72;;;11.16;42.13
51147;BME280;37207;53.060;18.726;2023-04-06T12:24:07;101291.74;;;11.12;42.56
51147;BME280;37207;53.060;18.726;2023-04-06T12:26:34;101290.74;;;11.33;42.89
51147;BME280;37207;53.060;18.726;2023-04-06T12:29:00;101285.79;;;11.75;42.64
51147;BME280;37207;53.060;18.726;2023-04-06T12:31:34;101285.31;;;11.87;41.79
51147;BME280;37207;53.060;18.726;2023-04-06T12:34:01;101284.02;;;11.76;41.77
51147;BME280;37207;53.060;18.726;2023-04-06T12:36:29;101282.83;;;11.83;41.74
51147;BME280;37207;53.060;18.726;2023-04-06T12:38:55;101283.72;;;11.92;41.38
51147;BME280;37207;53.060;18.726;2023-04-06T12:41:21;101282.84;;;12.02;41.13
51147;BME280;37207;53.060;18.726;2023-04-06T12:43:48;101273.65;;;12.29;41.03
51147;BME280;37207;53.060;18.726;2023-04-06T12:46:15;101272.36;;;12.56;41.00
51147;BME280;37207;53.060;18.726;2023-04-06T12:48:41;101274.22;;;12.55;41.22
51147;BME280;37207;53.060;18.726;2023-04-06T12:51:07;101274.39;;;12.50;41.36
51147;BME280;37207;53.060;18.726;2023-04-06T12:53:34;101269.35;;;12.46;41.27
51147;BME280;37207;53.060;18.726;2023-04-06T12:56:01;101263.72;;;12.37;41.32
51147;BME280;37207;53.060;18.726;2023-04-06T12:58:28;101264.75;;;12.24;41.64
51147;BME280;37207;53.060;18.726;2023-04-06T13:00:55;101269.48;;;12.07;41.64